sensor_id;sensor_type;location;lat;lon;timestamp;P1;P4;P2;P0;N10;N4;N25;N1;N05;TS
45310;SPS30;68264;51.540;5.854;2023-04-22T07:48:45;7.93;;10.26;9.71;9435.5;;6151.8;6079.1;9434.2;
45310;SPS30;68264;51.540;5.854;2023-04-22T08:03:13;7.75;;10.15;9.71;9425.8;;6144.4;6085.4;9424.9;
45310;SPS30;68264;51.540;5.854;2023-04-22T08:17:33;6.49;;9.11;8.78;8039.5;;4760.0;4716.0;8038.9;
45310;SPS30;68264;51.540;5.854;2023-04-22T08:31:32;5.77;;8.29;7.86;6661.6;;3378.0;3312.4;6660.4;
45310;SPS30;68264;51.540;5.854;2023-04-22T08:45:31;4.99;;7.8;7.53;6220.2;;2942.6;2914.4;6219.9;
45310;SPS30;68264;51.540;5.854;2023-04-22T08:59:30;3.54;;6.49;6.33;4412.4;;1135.0;1112.1;4412.2;
45310;SPS30;68264;51.540;5.854;2023-04-22T09:13:29;3.0;;6.0;5.84;10269.7;;6992.2;6970.9;10269.5;
45310;SPS30;68264;51.540;5.854;2023-04-22T09:27:28;3.54;;6.49;6.28;4352.1;;1074.7;1052.0;4351.9;
45310;SPS30;68264;51.540;5.854;2023-04-22T09:41:27;2.88;;5.9;5.68;9990.1;;6711.4;6683.1;9989.7;
45310;SPS30;68264;51.540;5.854;2023-04-22T09:55:26;3.24;;6.11;5.84;10242.1;;6962.0;6924.8;10241.5;
45310;SPS30;68264;51.540;5.854;2023-04-22T10:10:58;2.76;;5.79;5.62;9971.4;;6694.1;6674.2;9971.2;
45310;SPS30;68264;51.540;5.854;2023-04-22T10:28:01;2.4;;5.46;5.3;9466.3;;6189.1;6170.7;9466.2;
45310;SPS30;68264;51.540;5.854;2023-04-22T10:44:32;2.88;;5.9;5.73;10124.0;;6846.6;6826.3;10123.8;
45310;SPS30;68264;51.540;5.854;2023-04-22T10:59:32;3.12;;6.11;5.95;10396.2;;7118.8;7097.7;10396.0;
45310;SPS30;68264;51.540;5.854;2023-04-22T11:14:00;3.85;;6.77;6.6;4811.2;;1533.7;1509.7;4810.9;
45310;SPS30;68264;51.540;5.854;2023-04-22T11:28:19;3.18;;6.17;5.95;10447.5;;7170.2;7148.8;10447.3;
45310;SPS30;68264;51.540;5.854;2023-04-22T11:42:18;3.18;;6.17;5.95;10446.8;;7169.4;7148.1;10446.6;
45310;SPS30;68264;51.540;5.854;2023-04-22T11:56:17;2.64;;5.68;5.46;9742.4;;6465.1;6445.9;9742.2;
45310;SPS30;68264;51.540;5.854;2023-04-22T12:10:16;2.28;;5.35;5.19;9276.9;;5999.6;5981.8;9276.7;
45310;SPS30;68264;51.540;5.854;2023-04-22T12:25:16;2.16;;5.24;5.08;9138.5;;5861.2;5843.8;9138.4;
45310;SPS30;68264;51.540;5.854;2023-04-22T12:40:45;1.56;;4.7;4.59;8419.2;;5142.0;5126.7;8419.0;
45310;SPS30;68264;51.540;5.854;2023-04-22T12:56:06;1.92;;5.02;4.91;8875.4;;5598.2;5581.6;8875.3;
45310;SPS30;68264;51.540;5.854;2023-04-22T13:12:38;2.46;;5.51;5.35;9564.2;;6286.9;6268.2;9564.0;
45310;SPS30;68264;51.540;5.854;2023-04-22T13:28:08;2.34;;5.4;5.24;9368.9;;6091.6;6073.5;9368.7;
45310;SPS30;68264;51.540;5.854;2023-04-22T13:42:07;2.58;;5.62;5.46;9677.5;;6400.2;6381.2;9677.3;
45310;SPS30;68264;51.540;5.854;2023-04-22T13:56:06;2.76;;5.68;5.4;9624.7;;6343.9;6304.6;9624.0;
45310;SPS30;68264;51.540;5.854;2023-04-22T14:10:05;2.76;;5.79;5.62;9939.4;;6662.1;6642.3;9939.2;
45310;SPS30;68264;51.540;5.854;2023-04-22T14:24:04;3.97;;6.88;6.66;4896.3;;1618.9;1594.6;4896.1;
45310;SPS30;68264;51.540;5.854;2023-04-22T14:38:03;3.85;;6.77;6.55;4785.3;;1507.8;1483.9;4785.0;
45310;SPS30;68264;51.540;5.854;2023-04-22T14:52:02;4.45;;7.31;7.04;5507.0;;2229.5;2203.4;5506.7;
45310;SPS30;68264;51.540;5.854;2023-04-22T15:06:02;2.16;;5.24;5.08;9151.5;;5874.2;5856.8;9151.3;
45310;SPS30;68264;51.540;5.854;2023-04-22T15:20:30;1.92;;5.02;4.91;8860.6;;5583.4;5566.8;8860.5;
45310;SPS30;68264;51.540;5.854;2023-04-22T15:34:49;1.68;;4.8;4.64;8501.7;;5224.5;5209.0;8501.6;
45310;SPS30;68264;51.540;5.854;2023-04-22T15:49:17;1.2;;4.1;3.82;7273.3;;3990.1;3941.7;7272.3;
45310;SPS30;68264;51.540;5.854;2023-04-22T16:03:36;0.42;;3.66;3.55;6924.2;;3647.1;3636.3;6924.1;
45310;SPS30;68264;51.540;5.854;2023-04-22T16:17:35;1.92;;4.75;4.42;8176.4;;4892.8;4840.6;8175.2;
45310;SPS30;68264;51.540;5.854;2023-04-22T16:31:34;2.28;;5.35;5.19;9301.0;;6023.7;6005.8;9300.8;
45310;SPS30;68264;51.540;5.854;2023-04-22T16:46:02;2.64;;5.68;5.51;9753.4;;6476.1;6456.9;9753.2;
45310;SPS30;68264;51.540;5.854;2023-04-22T17:00:22;2.58;;5.62;5.46;9681.1;;6403.8;6384.8;9680.9;
45310;SPS30;68264;51.540;5.854;2023-04-22T17:15:22;0.01;;2.9;2.84;5843.6;;2566.6;2558.9;5843.5;
45310;SPS30;68264;51.540;5.854;2023-04-22T17:30:21;1.8;;4.86;4.75;8634.9;;5357.4;5339.7;8634.7;
45310;SPS30;68264;51.540;5.854;2023-04-22T17:44:20;6.79;;9.17;8.62;7812.9;;4527.6;4449.1;7811.4;
45310;SPS30;68264;51.540;5.854;2023-04-22T17:58:19;10.21;;12.54;12.11;6372.9;;3094.0;3041.1;6372.3;
45310;SPS30;68264;51.540;5.854;2023-04-22T18:12:18;13.45;;15.43;14.83;10433.8;;7153.7;7083.2;10433.0;
45310;SPS30;68264;51.540;5.854;2023-04-22T18:26:18;14.59;;15.98;15.0;10673.5;;7381.2;7237.8;10670.7;
45310;SPS30;68264;51.540;5.854;2023-04-22T18:40:16;16.81;;17.72;16.47;12837.3;;9537.8;9345.8;12833.4;
45310;SPS30;68264;51.540;5.854;2023-04-22T18:54:16;14.89;;16.63;15.92;11992.9;;8709.5;8615.2;11991.6;
45310;SPS30;68264;51.540;5.854;2023-04-22T19:09:16;33.1;;32.1;30.2;4587.2;4584.4;1294.7;1140.3;;
45310;SPS30;68264;51.540;5.854;2023-04-22T19:24:15;34.7;;34.0;32.3;6274.7;6272.6;2986.8;2855.4;;
45310;SPS30;68264;51.540;5.854;2023-04-22T19:38:43;34.3;;33.1;31.0;5262.7;5259.5;1967.7;1796.7;;
45310;SPS30;68264;51.540;5.854;2023-04-22T19:53:03;33.5;;32.0;29.6;4161.6;4157.8;862.1;667.1;;
45310;SPS30;68264;51.540;5.854;2023-04-22T20:07:02;34.0;;32.6;30.4;4764.0;4760.4;1466.4;1281.7;;
45310;SPS30;68264;51.540;5.854;2023-04-22T20:22:02;36.5;;34.7;32.0;6054.2;6049.6;2750.2;2523.5;;
45310;SPS30;68264;51.540;5.854;2023-04-22T20:40:11;35.7;;33.8;31.1;5369.9;5365.2;2065.4;1838.1;;
45310;SPS30;68264;51.540;5.854;2023-04-22T20:59:17;33.7;;32.2;29.8;4318.1;4314.1;1018.0;819.8;;
45310;SPS30;68264;51.540;5.854;2023-04-22T21:15:46;42.0;;39.4;36.0;9269.4;9263.0;5954.3;5653.6;;
45310;SPS30;68264;51.540;5.854;2023-04-22T21:31:38;39.0;;37.2;34.4;8026.8;8022.2;4723.2;4494.2;;
45310;SPS30;68264;51.540;5.854;2023-04-22T21:47:08;48.5;;44.6;39.8;5821.6;5812.2;2487.1;2063.5;;
45310;SPS30;68264;51.540;5.854;2023-04-22T22:01:36;56.0;;51.3;45.7;10533.8;10522.6;7188.3;6687.2;;
45310;SPS30;68264;51.540;5.854;2023-04-22T22:15:56;41.9;;35.92;30.53;7343.0;;3926.0;2983.0;7320.7;
